Time;durP1;ratioP1;P1;durP2;ratioP2;P2;SDS_P1;SDS_P2;PMS_P1;PMS_P2;Temp;Humidity;BMP_temperature;BMP_pressure;BME280_temperature;BME280_humidity;BME280_pressure;Samples;Min_cycle;Max_cycle;Signal;HPM_P1;HPM_P2
2021/05/06 01:10:52;;;;;;;3.83;1.77;;;7.10;83.10;;;;;;4990008;28;20843;-77
2021/05/06 01:13:24;;;;;;;3.60;2.00;;;7.10;83.60;;;;;;4981009;28;20449;-75
2021/05/06 01:15:50;;;;;;;2.40;1.70;;;7.10;83.70;;;;;;4971512;28;20422;-74
2021/05/06 01:18:16;;;;;;;7.13;2.60;;;7.10;83.40;;;;;;4980538;28;20984;-78
2021/05/06 01:20:47;;;;;;;5.07;2.67;;;7.10;83.30;;;;;;4984048;28;20262;-76
2021/05/06 01:23:13;;;;;;;5.10;2.40;;;7.10;83.10;;;;;;4969136;28;20493;-75
2021/05/06 01:25:41;;;;;;;3.73;2.50;;;7.10;83.00;;;;;;4982502;28;20427;-76
2021/05/06 01:28:10;;;;;;;5.90;2.33;;;7.10;83.10;;;;;;4981392;28;20206;-77
2021/05/06 01:30:42;;;;;;;2.70;1.97;;;7.10;83.30;;;;;;5018023;28;20422;-75
2021/05/06 01:46:50;;;;;;;3.27;2.33;;;7.10;84.00;;;;;;5101545;28;20423;-76
2021/05/06 01:57:30;;;;;;;4.03;2.00;;;7.10;83.00;;;;;;5110207;28;20428;-77
2021/05/06 02:00:00;;;;;;;5.00;2.40;;;7.30;82.40;;;;;;5113146;28;20427;-76
2021/05/06 02:02:23;;;;;;;4.43;2.40;;;7.30;81.50;;;;;;5115225;28;20476;-76
2021/05/06 02:04:49;;;;;;;6.50;2.40;;;7.30;80.90;;;;;;5115742;28;20428;-75
2021/05/06 02:07:15;;;;;;;3.30;1.77;;;7.30;81.10;;;;;;5114236;28;20518;-76
2021/05/06 02:09:40;;;;;;;4.80;2.23;;;7.40;81.10;;;;;;5114481;28;20424;-77
2021/05/06 02:12:09;;;;;;;5.10;2.73;;;7.40;80.60;;;;;;5114837;28;20674;-75
2021/05/06 02:14:35;;;;;;;7.40;2.20;;;7.40;80.80;;;;;;5114751;28;20187;-76
2021/05/06 02:17:01;;;;;;;4.17;2.30;;;7.40;80.60;;;;;;5113176;28;20467;-75
2021/05/06 02:19:31;;;;;;;4.73;2.30;;;7.40;80.50;;;;;;5114038;28;20256;-75
2021/05/06 02:21:57;;;;;;;5.20;2.23;;;7.40;80.30;;;;;;5113665;28;20194;-74
2021/05/06 02:24:22;;;;;;;7.47;2.40;;;7.50;80.30;;;;;;5118217;28;20506;-74
2021/05/06 02:26:48;;;;;;;4.23;2.20;;;7.50;79.70;;;;;;5115059;28;20186;-75
2021/05/06 02:29:14;;;;;;;4.67;2.37;;;7.60;78.90;;;;;;5112967;28;20721;-77
2021/05/06 02:31:40;;;;;;;5.97;2.70;;;7.60;78.90;;;;;;5114457;28;20190;-76
2021/05/06 02:34:05;;;;;;;3.30;2.07;;;7.50;78.30;;;;;;5113335;28;20222;-76
2021/05/06 02:36:31;;;;;;;7.20;2.40;;;7.50;78.40;;;;;;5111649;28;20230;-76
2021/05/06 02:38:58;;;;;;;3.40;2.20;;;7.60;78.40;;;;;;5102543;28;20778;-75
2021/05/06 02:41:23;;;;;;;4.57;2.47;;;7.50;78.60;;;;;;5098804;28;20291;-75
2021/05/06 02:43:49;;;;;;;4.27;2.37;;;7.50;79.20;;;;;;5112773;28;20524;-78
2021/05/06 02:46:15;;;;;;;4.33;2.40;;;7.50;79.50;;;;;;5113869;28;20232;-74
2021/05/06 02:48:41;;;;;;;5.10;3.07;;;7.50;79.60;;;;;;5112577;28;20186;-74
2021/05/06 02:51:07;;;;;;;4.33;2.47;;;7.50;79.90;;;;;;5114725;28;20191;-76
2021/05/06 02:53:38;;;;;;;5.20;2.23;;;7.50;80.20;;;;;;5113826;28;20489;-75
2021/05/06 02:56:12;;;;;;;5.97;2.40;;;7.40;80.60;;;;;;5112349;28;20531;-75
2021/05/06 03:03:51;;;;;;;4.07;2.30;;;7.40;81.50;;;;;;5114137;28;20485;-76
2021/05/06 03:06:26;;;;;;;7.60;2.70;;;7.40;82.40;;;;;;5107895;28;20418;-75
2021/05/06 03:08:57;;;;;;;3.83;2.07;;;7.30;83.30;;;;;;5106777;28;20428;-74
2021/05/06 03:14:13;;;;;;;3.77;2.13;;;7.20;84.40;;;;;;5113455;28;20443;-76
2021/05/06 03:24:31;;;;;;;7.37;2.90;;;6.90;86.90;;;;;;5113083;27;20416;-76
2021/05/06 03:26:57;;;;;;;4.20;2.40;;;6.70;89.00;;;;;;5112803;28;20751;-74
2021/05/06 03:29:29;;;;;;;5.97;2.60;;;6.50;90.50;;;;;;5112822;28;20448;-76
2021/05/06 03:42:58;;;;;;;10.67;4.07;;;5.90;93.90;;;;;;5113017;28;20435;-76
2021/05/06 04:15:29;;;;;;;4.97;2.70;;;5.80;95.10;;;;;;5098214;28;20477;-75
2021/05/06 04:18:03;;;;;;;5.40;2.37;;;5.90;95.00;;;;;;5097927;28;20451;-76
2021/05/06 04:36:55;;;;;;;8.97;3.73;;;6.10;94.30;;;;;;5027671;28;20536;-74
2021/05/06 04:40:04;;;;;;;8.23;3.53;;;6.20;94.30;;;;;;5028843;28;20428;-75
2021/05/06 04:55:52;;;;;;;9.60;4.30;;;6.40;94.90;;;;;;5040543;28;20518;-74
2021/05/06 05:06:55;;;;;;;8.67;4.27;;;6.60;94.40;;;;;;5098606;28;20477;-76
2021/05/06 05:12:24;;;;;;;7.03;3.47;;;6.70;94.30;;;;;;5090551;28;20421;-73
2021/05/06 05:25:16;;;;;;;8.10;3.57;;;7.10;92.40;;;;;;5110149;28;20417;-75
2021/05/06 05:27:42;;;;;;;5.60;3.03;;;7.00;92.50;;;;;;5109550;28;20416;-74
2021/05/06 05:30:09;;;;;;;6.43;3.67;;;7.10;91.80;;;;;;5109990;28;20439;-75
2021/05/06 05:32:35;;;;;;;8.57;3.37;;;7.10;91.10;;;;;;5100481;28;20234;-75
2021/05/06 05:35:15;;;;;;;9.30;3.10;;;7.30;90.80;;;;;;5089578;28;20457;-74
2021/05/06 05:37:48;;;;;;;4.37;2.60;;;7.40;90.80;;;;;;5088940;28;20206;-74
2021/05/06 05:40:30;;;;;;;6.93;3.13;;;7.40;90.50;;;;;;5102621;28;20815;-76
2021/05/06 05:56:18;;;;;;;8.07;3.40;;;7.80;89.30;;;;;;5109699;28;20458;-75
2021/05/06 05:58:43;;;;;;;10.40;3.53;;;7.80;89.00;;;;;;5109094;28;20495;-74
2021/05/06 06:01:09;;;;;;;7.43;2.80;;;7.90;88.30;;;;;;5110775;28;20232;-75
2021/05/06 06:03:35;;;;;;;5.70;3.00;;;7.80;88.60;;;;;;5110795;28;20693;-74
2021/05/06 06:06:02;;;;;;;8.47;2.70;;;7.80;87.80;;;;;;5108767;28;20221;-75
2021/05/06 06:08:30;;;;;;;6.03;2.87;;;7.80;87.80;;;;;;5097659;28;20199;-73
2021/05/06 06:10:56;;;;;;;16.30;3.00;;;7.70;88.00;;;;;;5112463;28;20429;-75
2021/05/06 06:13:21;;;;;;;6.93;3.20;;;7.70;88.00;;;;;;5102371;28;20468;-74
2021/05/06 06:18:51;;;;;;;4.67;2.90;;;7.70;86.90;;;;;;5090390;28;20512;-76
2021/05/06 06:21:14;;;;;;;7.50;2.53;;;7.80;86.50;;;;;;5097118;28;20701;-74
2021/05/06 06:23:40;;;;;;;5.40;2.90;;;7.70;85.90;;;;;;5107978;28;20999;-76
2021/05/06 06:26:06;;;;;;;5.63;2.57;;;7.70;86.20;;;;;;5097690;28;20504;-73
2021/05/06 06:28:39;;;;;;;6.67;2.53;;;7.70;85.70;;;;;;5107479;28;20530;-75
2021/05/06 06:31:20;;;;;;;7.50;2.57;;;7.70;86.00;;;;;;5089866;28;20608;-75
2021/05/06 06:33:46;;;;;;;5.37;2.57;;;7.70;86.80;;;;;;5087762;28;20441;-75
2021/05/06 06:36:12;;;;;;;5.70;2.70;;;7.70;87.80;;;;;;5100853;28;21394;-76
2021/05/06 06:38:38;;;;;;;8.30;2.50;;;7.60;88.10;;;;;;5095600;28;20464;-73
2021/05/06 06:41:08;;;;;;;9.60;3.00;;;7.60;88.40;;;;;;5108912;28;20483;-75
2021/05/06 06:43:39;;;;;;;8.20;2.83;;;7.60;88.30;;;;;;5095892;28;20221;-76
2021/05/06 06:46:05;;;;;;;9.70;3.40;;;7.60;88.70;;;;;;5099257;28;20409;-73
2021/05/06 06:48:31;;;;;;;5.83;2.93;;;7.70;88.40;;;;;;5091849;28;20429;-74
2021/05/06 06:50:56;;;;;;;12.00;3.07;;;7.70;88.40;;;;;;5099929;28;20430;-75
2021/05/06 06:53:22;;;;;;;5.50;2.80;;;7.80;87.70;;;;;;5111632;28;20892;-76
2021/05/06 06:55:49;;;;;;;7.33;3.27;;;7.90;87.10;;;;;;5113114;28;20225;-77
2021/05/06 06:58:16;;;;;;;6.67;2.97;;;7.90;86.90;;;;;;5112995;28;20592;-76
2021/05/06 07:00:44;;;;;;;5.40;2.60;;;7.90;86.60;;;;;;5113077;28;21146;-74
2021/05/06 07:03:11;;;;;;;5.60;2.87;;;8.00;86.20;;;;;;5099676;28;20443;-74
2021/05/06 07:05:37;;;;;;;7.53;2.77;;;8.00;85.50;;;;;;5112277;28;20978;-76
2021/05/06 07:08:20;;;;;;;5.80;3.03;;;8.00;85.30;;;;;;5112645;28;20516;-73
2021/05/06 07:10:48;;;;;;;5.00;2.70;;;8.10;85.70;;;;;;5111191;28;20428;-73
2021/05/06 07:13:16;;;;;;;4.53;2.93;;;8.10;85.70;;;;;;5111481;28;20496;-73
2021/05/06 07:15:46;;;;;;;9.90;3.00;;;8.20;84.30;;;;;;5096838;28;20560;-76
2021/05/06 07:18:12;;;;;;;9.57;3.17;;;8.30;84.30;;;;;;5112274;28;20987;-77
2021/05/06 07:20:37;;;;;;;5.90;2.70;;;8.30;83.80;;;;;;5111064;28;20451;-76
2021/05/06 07:23:03;;;;;;;10.83;2.50;;;8.40;83.70;;;;;;5101504;28;20440;-76
2021/05/06 07:25:29;;;;;;;3.67;2.60;;;8.50;83.10;;;;;;5091436;28;20194;-74
2021/05/06 07:27:55;;;;;;;9.73;3.10;;;8.50;82.40;;;;;;5091638;28;20213;-74
2021/05/06 07:30:21;;;;;;;10.97;3.40;;;8.50;83.00;;;;;;5104217;28;20218;-75
2021/05/06 07:32:47;;;;;;;12.37;3.57;;;8.60;82.70;;;;;;5092127;28;20449;-73
2021/05/06 07:35:13;;;;;;;8.63;2.90;;;8.70;82.70;;;;;;5107984;28;20428;-73
2021/05/06 07:37:39;;;;;;;8.47;3.10;;;8.80;82.40;;;;;;5101097;28;20221;-73
2021/05/06 07:40:07;;;;;;;9.10;2.90;;;8.70;81.50;;;;;;5092302;28;20541;-75
2021/05/06 07:42:33;;;;;;;5.33;2.77;;;8.80;82.10;;;;;;5092627;28;20458;-74
2021/05/06 07:44:59;;;;;;;10.53;3.60;;;8.90;81.50;;;;;;5094136;28;20516;-75
2021/05/06 07:47:25;;;;;;;10.87;3.10;;;9.00;80.50;;;;;;5095316;28;20425;-73
2021/05/06 07:49:51;;;;;;;6.80;3.27;;;9.10;80.20;;;;;;5095266;28;20478;-75
2021/05/06 07:52:18;;;;;;;10.10;3.10;;;9.10;80.00;;;;;;5110606;28;20364;-75
2021/05/06 07:54:45;;;;;;;6.60;2.50;;;9.10;80.00;;;;;;5112802;28;20429;-74
2021/05/06 07:57:12;;;;;;;5.43;3.20;;;9.20;78.60;;;;;;5111268;28;20507;-73
2021/05/06 07:59:37;;;;;;;5.63;3.00;;;9.30;77.80;;;;;;5112008;28;20912;-74
2021/05/06 08:02:05;;;;;;;5.07;2.63;;;9.30;79.00;;;;;;5112153;28;20505;-72
2021/05/06 08:04:30;;;;;;;6.43;3.80;;;9.40;79.30;;;;;;5095090;28;20190;-75
2021/05/06 08:06:56;;;;;;;5.67;3.33;;;9.60;78.30;;;;;;5107218;27;20420;-73
2021/05/06 08:09:22;;;;;;;11.37;3.70;;;9.70;77.30;;;;;;5099053;28;20974;-73
2021/05/06 08:11:51;;;;;;;6.90;3.53;;;9.70;75.20;;;;;;5099483;28;20281;-73
2021/05/06 08:14:17;;;;;;;5.83;3.53;;;9.70;76.20;;;;;;5102523;28;20421;-72
2021/05/06 08:16:43;;;;;;;6.43;2.27;;;9.70;75.90;;;;;;5091364;28;20465;-74
2021/05/06 08:19:08;;;;;;;2.87;2.30;;;9.70;75.50;;;;;;5093492;28;20207;-72
2021/05/06 08:21:34;;;;;;;7.20;2.30;;;9.80;76.50;;;;;;5102447;28;20195;-73
2021/05/06 08:24:00;;;;;;;5.90;2.60;;;9.90;76.50;;;;;;5092586;28;20209;-71
2021/05/06 08:26:27;;;;;;;5.30;3.10;;;10.00;74.90;;;;;;5092796;28;20269;-73
2021/05/06 08:28:53;;;;;;;13.83;2.50;;;10.00;74.00;;;;;;5101765;28;20297;-70
2021/05/06 08:31:20;;;;;;;8.17;2.97;;;10.00;74.20;;;;;;5104607;28;20421;-71
2021/05/06 08:33:45;;;;;;;4.13;2.30;;;10.00;74.80;;;;;;5108080;28;20794;-73
2021/05/06 08:36:11;;;;;;;5.40;3.10;;;10.10;74.30;;;;;;5099465;28;20468;-73
2021/05/06 08:38:37;;;;;;;5.40;2.37;;;10.10;74.00;;;;;;5099175;28;20722;-71
2021/05/06 08:41:03;;;;;;;4.80;2.60;;;10.10;74.20;;;;;;5107556;28;20500;-72
2021/05/06 08:43:33;;;;;;;7.03;2.70;;;10.20;73.60;;;;;;5114152;28;20274;-72
2021/05/06 08:45:59;;;;;;;8.87;3.03;;;10.20;73.60;;;;;;5089895;28;20909;-72
2021/05/06 08:48:25;;;;;;;6.83;2.77;;;10.10;74.20;;;;;;5090973;28;20422;-75
2021/05/06 08:50:54;;;;;;;12.03;3.20;;;10.10;74.90;;;;;;5100324;28;20427;-72
2021/05/06 08:53:21;;;;;;;7.70;2.67;;;10.20;74.50;;;;;;5105759;28;20450;-72
2021/05/06 08:55:48;;;;;;;10.83;3.13;;;10.30;74.00;;;;;;5101166;28;20453;-73
2021/05/06 08:58:14;;;;;;;5.83;2.90;;;10.20;73.00;;;;;;5108804;28;20475;-72
2021/05/06 09:00:40;;;;;;;5.07;2.53;;;10.20;73.90;;;;;;5109947;28;20931;-73
2021/05/06 09:03:07;;;;;;;4.40;2.30;;;10.20;74.00;;;;;;5107049;28;20289;-72
2021/05/06 09:05:35;;;;;;;7.83;3.13;;;10.40;73.20;;;;;;5092697;27;20428;-71
2021/05/06 09:08:02;;;;;;;11.03;2.90;;;10.40;71.80;;;;;;5111708;27;20439;-71
2021/05/06 09:10:35;;;;;;;9.37;3.53;;;10.40;72.30;;;;;;5097933;28;20429;-73
2021/05/06 09:13:02;;;;;;;7.00;2.87;;;10.40;73.20;;;;;;5090349;28;20872;-71
2021/05/06 09:15:28;;;;;;;8.70;3.17;;;10.40;73.30;;;;;;5089592;28;20462;-71
2021/05/06 09:17:54;;;;;;;6.47;3.00;;;10.30;73.60;;;;;;5090281;28;20523;-72
2021/05/06 09:20:25;;;;;;;5.00;2.90;;;10.20;74.30;;;;;;5100149;28;20421;-71
2021/05/06 09:22:54;;;;;;;13.20;3.13;;;10.30;74.00;;;;;;5106674;28;20210;-72
2021/05/06 09:25:39;;;;;;;6.97;3.37;;;10.30;74.20;;;;;;5110484;28;20416;-69
2021/05/06 09:28:09;;;;;;;10.13;3.37;;;10.40;73.60;;;;;;5110306;28;20895;-72
2021/05/06 09:30:36;;;;;;;6.63;3.10;;;10.50;73.50;;;;;;5110596;28;20966;-73
2021/05/06 09:33:05;;;;;;;6.10;3.60;;;10.50;73.50;;;;;;5110472;28;20451;-75
2021/05/06 09:35:44;;;;;;;5.53;3.10;;;10.50;73.60;;;;;;5110613;28;20420;-75
2021/05/06 09:38:30;;;;;;;5.90;3.17;;;10.50;73.70;;;;;;5110740;28;20926;-75
2021/05/06 09:41:03;;;;;;;5.03;3.20;;;10.60;73.20;;;;;;5110114;28;20432;-74
2021/05/06 09:43:32;;;;;;;6.23;3.30;;;10.60;73.30;;;;;;5097204;28;20810;-75
2021/05/06 09:45:59;;;;;;;4.43;2.63;;;10.60;73.70;;;;;;5099590;28;20449;-74
2021/05/06 09:48:27;;;;;;;7.73;3.10;;;10.60;73.50;;;;;;5108491;28;20454;-75
2021/05/06 09:51:04;;;;;;;7.30;3.47;;;10.70;72.90;;;;;;5109686;28;20431;-73
2021/05/06 09:53:32;;;;;;;7.33;2.80;;;10.70;73.60;;;;;;5110565;28;20456;-74
2021/05/06 09:56:03;;;;;;;4.53;3.13;;;10.60;73.30;;;;;;5110696;28;20810;-74
2021/05/06 09:58:33;;;;;;;5.70;3.00;;;10.60;73.90;;;;;;5111188;28;21032;-76
2021/05/06 10:01:10;;;;;;;8.70;3.63;;;10.60;73.60;;;;;;5111564;28;20412;-75
2021/05/06 10:03:36;;;;;;;13.13;3.90;;;10.50;74.50;;;;;;5111278;28;20444;-74
2021/05/06 10:06:20;;;;;;;6.80;3.10;;;10.60;75.10;;;;;;5111091;28;20438;-76
2021/05/06 10:08:47;;;;;;;11.63;3.40;;;10.70;74.90;;;;;;5112397;28;20212;-76
2021/05/06 10:11:15;;;;;;;8.13;2.80;;;10.70;75.20;;;;;;5112060;28;20435;-77
2021/05/06 10:13:43;;;;;;;6.83;3.50;;;10.80;75.10;;;;;;5111888;28;20448;-74
2021/05/06 10:16:11;;;;;;;7.17;2.83;;;10.80;75.50;;;;;;5110302;28;20424;-75
2021/05/06 10:18:42;;;;;;;6.83;3.10;;;10.70;75.50;;;;;;5111579;28;20485;-75
2021/05/06 10:21:11;;;;;;;5.03;2.50;;;10.70;76.20;;;;;;5099542;28;20424;-74
2021/05/06 10:23:37;;;;;;;9.90;2.80;;;10.70;76.50;;;;;;5114833;28;20451;-75
2021/05/06 10:26:04;;;;;;;6.33;2.60;;;10.60;77.40;;;;;;5096436;28;20490;-74
2021/05/06 10:28:34;;;;;;;11.60;3.30;;;10.50;78.10;;;;;;5095928;28;21053;-74
2021/05/06 10:31:07;;;;;;;3.63;2.50;;;10.40;79.00;;;;;;5106337;28;20842;-74
2021/05/06 10:33:36;;;;;;;3.80;2.47;;;10.30;79.90;;;;;;5126133;28;20440;-76
2021/05/06 10:36:04;;;;;;;7.33;2.50;;;10.20;80.60;;;;;;5114257;28;20423;-75
2021/05/06 10:38:34;;;;;;;6.27;2.90;;;10.10;81.70;;;;;;5110774;28;20439;-76
2021/05/06 10:41:22;;;;;;;8.13;2.70;;;10.00;82.20;;;;;;5100172;28;20424;-75
2021/05/06 10:43:59;;;;;;;9.13;2.40;;;10.10;82.80;;;;;;5097234;28;20452;-75
2021/05/06 10:46:46;;;;;;;6.00;2.90;;;10.00;83.10;;;;;;5112584;28;20415;-76
2021/05/06 10:49:12;;;;;;;5.07;2.73;;;9.80;83.40;;;;;;5099561;28;21466;-75
2021/05/06 10:51:47;;;;;;;8.00;3.10;;;9.80;83.60;;;;;;5111456;28;20435;-75
2021/05/06 10:54:28;;;;;;;5.60;2.80;;;9.70;83.40;;;;;;5101908;28;20818;-75
2021/05/06 10:56:56;;;;;;;5.63;2.60;;;9.70;83.70;;;;;;5097568;28;21007;-76
2021/05/06 10:59:26;;;;;;;7.27;2.20;;;9.70;83.60;;;;;;5112098;28;20420;-76
2021/05/06 11:01:53;;;;;;;4.00;2.47;;;9.80;83.60;;;;;;5104400;28;20859;-76
2021/05/06 11:04:37;;;;;;;5.03;2.37;;;9.80;83.30;;;;;;5104091;28;20420;-76
2021/05/06 11:07:18;;;;;;;4.97;2.30;;;9.80;83.40;;;;;;5103359;28;20443;-75
2021/05/06 11:09:46;;;;;;;5.50;2.20;;;9.80;83.30;;;;;;5110501;28;20439;-76
2021/05/06 11:12:15;;;;;;;3.53;1.83;;;9.90;82.80;;;;;;5113194;28;20509;-75
2021/05/06 11:15:02;;;;;;;6.87;2.83;;;9.90;83.10;;;;;;5113820;28;20995;-76
2021/05/06 11:17:37;;;;;;;4.07;2.40;;;9.90;82.70;;;;;;5111496;28;20574;-76
2021/05/06 11:20:29;;;;;;;7.80;3.13;;;9.90;83.10;;;;;;5115226;28;20415;-74
2021/05/06 11:22:58;;;;;;;4.17;2.70;;;10.00;83.40;;;;;;5113520;28;20454;-76
2021/05/06 11:27:54;;;;;;;3.63;2.40;;;10.30;82.80;;;;;;5094322;28;20425;-74
2021/05/06 11:30:45;;;;;;;3.97;1.87;;;10.30;82.10;;;;;;5105340;28;20428;-76
2021/05/06 11:33:20;;;;;;;4.27;2.40;;;10.30;81.20;;;;;;5102918;28;20989;-74
2021/05/06 11:36:08;;;;;;;2.40;1.50;;;10.20;81.20;;;;;;5102056;28;21107;-74
2021/05/06 11:38:37;;;;;;;4.40;2.23;;;10.20;79.90;;;;;;5109880;28;20458;-74
2021/05/06 11:41:08;;;;;;;4.53;2.20;;;10.30;80.20;;;;;;5102832;28;20440;-74
2021/05/06 11:43:37;;;;;;;2.87;1.67;;;10.40;79.30;;;;;;5110232;28;20967;-75
2021/05/06 11:46:07;;;;;;;4.00;1.90;;;10.40;79.20;;;;;;5111905;28;20416;-76
2021/05/06 11:48:43;;;;;;;2.00;1.63;;;10.50;78.60;;;;;;5113451;28;20431;-75
2021/05/06 11:51:11;;;;;;;2.77;1.47;;;10.50;78.30;;;;;;5105871;28;20441;-75
2021/05/06 11:53:38;;;;;;;2.23;1.80;;;10.50;77.70;;;;;;5112863;28;20799;-76
2021/05/06 11:56:15;;;;;;;4.10;3.60;;;10.50;76.40;;;;;;5112149;28;20416;-79
2021/05/06 11:58:42;;;;;;;2.07;1.30;;;10.50;77.40;;;;;;5099847;28;20476;-77
2021/05/06 12:01:12;;;;;;;3.03;1.80;;;10.50;76.50;;;;;;5111593;28;20796;-77
2021/05/06 12:03:40;;;;;;;1.37;1.10;;;10.50;76.10;;;;;;5110903;28;20974;-74
2021/05/06 12:06:06;;;;;;;3.13;1.50;;;10.40;74.90;;;;;;5109821;28;20478;-74
2021/05/06 12:08:46;;;;;;;2.90;1.37;;;10.30;75.50;;;;;;5101382;28;20445;-75
2021/05/06 12:11:13;;;;;;;2.97;1.90;;;10.30;75.70;;;;;;5111758;28;20416;-72
2021/05/06 12:13:46;;;;;;;2.90;1.30;;;10.30;75.80;;;;;;5113631;28;20432;-73
2021/05/06 12:16:23;;;;;;;2.90;1.80;;;10.40;76.10;;;;;;5110985;28;20481;-71
2021/05/06 12:18:59;;;;;;;1.93;1.47;;;10.50;76.20;;;;;;5096930;28;20723;-71
2021/05/06 12:21:41;;;;;;;3.90;1.53;;;10.60;75.40;;;;;;5112701;28;20448;-74
2021/05/06 12:24:09;;;;;;;2.60;1.60;;;10.60;74.80;;;;;;5118303;28;20436;-74
2021/05/06 12:26:35;;;;;;;2.90;1.50;;;10.70;74.80;;;;;;5114064;28;20432;-72
2021/05/06 12:29:02;;;;;;;3.90;1.40;;;10.70;74.90;;;;;;5092428;28;20445;-73
2021/05/06 12:31:28;;;;;;;1.90;1.40;;;10.80;74.50;;;;;;5102307;28;20431;-73
2021/05/06 12:33:54;;;;;;;5.80;1.40;;;10.80;74.50;;;;;;5110192;28;20440;-72
2021/05/06 12:36:20;;;;;;;4.30;1.57;;;10.80;74.90;;;;;;5109812;28;20210;-74
2021/05/06 12:38:48;;;;;;;4.17;1.90;;;10.80;76.50;;;;;;5109593;28;20440;-72
2021/05/06 12:41:15;;;;;;;4.27;1.70;;;10.60;78.30;;;;;;5109183;28;20408;-74
2021/05/06 12:43:51;;;;;;;4.40;1.53;;;10.50;79.70;;;;;;5107435;28;20432;-72
2021/05/06 12:46:24;;;;;;;4.43;2.70;;;10.40;80.60;;;;;;5108953;28;20458;-72
2021/05/06 12:49:00;;;;;;;1.93;1.57;;;10.30;82.20;;;;;;5096266;28;20416;-71
2021/05/06 12:51:34;;;;;;;2.07;1.40;;;10.20;83.30;;;;;;5108721;28;20417;-72
2021/05/06 12:54:05;;;;;;;3.17;1.53;;;10.00;84.00;;;;;;5108789;28;20436;-73
2021/05/06 12:56:37;;;;;;;2.43;1.70;;;10.00;85.60;;;;;;5108090;28;20521;-72
2021/05/06 12:59:24;;;;;;;2.90;1.50;;;10.00;86.00;;;;;;5107238;28;20429;-72
2021/05/06 13:01:50;;;;;;;3.77;1.90;;;10.00;87.00;;;;;;5096701;28;20447;-72
2021/05/06 13:04:17;;;;;;;2.77;1.53;;;9.90;87.60;;;;;;5108791;28;20473;-73
2021/05/06 13:06:43;;;;;;;2.07;1.70;;;9.90;88.00;;;;;;5107170;28;20428;-73
2021/05/06 13:09:16;;;;;;;3.70;1.97;;;9.80;89.00;;;;;;5108681;28;20426;-74
2021/05/06 13:11:42;;;;;;;3.90;1.87;;;9.70;89.60;;;;;;5109402;28;20194;-71
2021/05/06 13:14:08;;;;;;;3.00;2.17;;;9.60;90.10;;;;;;5108257;28;20515;-72
2021/05/06 13:16:42;;;;;;;3.17;2.00;;;9.60;90.90;;;;;;5107969;28;20555;-72
2021/05/06 13:19:10;;;;;;;3.50;2.00;;;9.60;90.70;;;;;;5104563;28;20182;-71
2021/05/06 13:21:36;;;;;;;3.00;2.00;;;9.60;91.70;;;;;;5109046;28;20911;-72
2021/05/06 13:24:07;;;;;;;3.53;2.10;;;9.50;91.30;;;;;;5108496;28;20448;-74
2021/05/06 13:26:38;;;;;;;3.33;2.30;;;9.30;91.30;;;;;;5108270;28;20419;-73
2021/05/06 13:29:22;;;;;;;3.90;2.10;;;9.30;92.30;;;;;;5108124;28;20779;-73
2021/05/06 13:31:49;;;;;;;5.53;2.50;;;9.20;93.30;;;;;;5107892;28;20426;-71
2021/05/06 13:34:20;;;;;;;5.00;2.60;;;9.20;93.60;;;;;;5088482;28;20484;-71
2021/05/06 13:36:58;;;;;;;6.13;3.03;;;9.20;94.00;;;;;;5087310;28;20828;-70
2021/05/06 13:39:24;;;;;;;5.70;2.87;;;9.10;94.40;;;;;;5098833;28;20431;-73
2021/05/06 13:41:50;;;;;;;4.30;2.50;;;9.10;94.50;;;;;;5105648;28;21001;-72
2021/05/06 13:44:19;;;;;;;3.87;2.47;;;9.00;95.10;;;;;;5100667;28;20488;-72
2021/05/06 13:46:44;;;;;;;6.67;2.90;;;9.10;95.30;;;;;;5109043;28;20181;-73
2021/05/06 13:49:11;;;;;;;6.03;3.07;;;9.10;95.80;;;;;;5098286;28;20417;-73
2021/05/06 13:51:37;;;;;;;5.60;3.10;;;9.20;96.10;;;;;;5107392;28;20273;-73
2021/05/06 13:54:03;;;;;;;4.63;2.90;;;9.30;96.10;;;;;;5109260;28;20968;-73
2021/05/06 13:56:29;;;;;;;7.07;3.60;;;9.40;96.10;;;;;;5108330;28;20464;-73
2021/05/06 13:58:54;;;;;;;7.07;2.70;;;9.40;96.30;;;;;;5109151;28;20439;-73
2021/05/06 14:01:20;;;;;;;6.87;2.90;;;9.50;96.50;;;;;;5109752;28;20181;-72
2021/05/06 14:03:46;;;;;;;5.77;3.10;;;9.50;96.50;;;;;;5109626;28;20701;-71
2021/05/06 14:06:12;;;;;;;6.67;3.30;;;9.60;96.80;;;;;;5108683;28;20192;-73
2021/05/06 14:08:38;;;;;;;7.17;3.30;;;9.70;96.90;;;;;;5109609;28;20412;-72
2021/05/06 14:11:05;;;;;;;10.13;2.90;;;9.70;96.90;;;;;;5109692;28;20807;-72
2021/05/06 14:13:32;;;;;;;5.50;2.57;;;9.80;96.70;;;;;;5099566;28;20494;-72
2021/05/06 14:15:58;;;;;;;5.80;2.90;;;9.90;96.90;;;;;;5092178;28;20443;-73
2021/05/06 14:18:24;;;;;;;8.00;3.47;;;9.90;96.60;;;;;;5099114;28;20495;-72
2021/05/06 14:20:51;;;;;;;6.13;3.03;;;10.00;96.30;;;;;;5088849;28;20446;-72
2021/05/06 14:23:18;;;;;;;4.90;2.47;;;10.00;96.00;;;;;;5089628;28;20227;-72
2021/05/06 14:25:44;;;;;;;5.07;2.20;;;10.10;95.20;;;;;;5088456;28;20509;-71
2021/05/06 14:28:10;;;;;;;7.13;2.43;;;10.00;93.90;;;;;;5088809;28;20465;-71
2021/05/06 14:30:36;;;;;;;4.73;2.20;;;9.90;93.40;;;;;;5102361;28;20459;-73
2021/05/06 14:33:02;;;;;;;5.77;2.10;;;9.90;94.00;;;;;;5089095;28;20264;-72
2021/05/06 14:35:30;;;;;;;6.30;2.50;;;9.80;94.50;;;;;;5087220;28;20191;-72
2021/05/06 14:37:55;;;;;;;6.43;2.00;;;9.60;94.10;;;;;;5089368;28;20521;-72
2021/05/06 14:40:21;;;;;;;4.20;2.90;;;9.50;94.30;;;;;;5089117;28;20776;-71
2021/05/06 14:42:47;;;;;;;12.30;2.50;;;9.40;95.00;;;;;;5087582;28;20207;-72
2021/05/06 14:45:14;;;;;;;5.90;2.50;;;9.40;95.80;;;;;;5087815;28;20191;-72
2021/05/06 14:47:40;;;;;;;4.40;2.07;;;9.40;96.00;;;;;;5089974;28;20278;-73
2021/05/06 14:50:11;;;;;;;8.00;2.50;;;9.40;96.20;;;;;;5101859;28;20467;-72
2021/05/06 14:52:38;;;;;;;3.87;2.07;;;9.30;95.90;;;;;;5122052;28;20771;-72
2021/05/06 14:55:06;;;;;;;5.87;2.43;;;9.30;96.20;;;;;;5111067;28;20440;-72
2021/05/06 14:57:32;;;;;;;6.73;1.63;;;9.20;96.00;;;;;;5097840;28;20995;-72
2021/05/06 14:59:58;;;;;;;4.67;2.07;;;9.10;96.00;;;;;;5101881;28;20452;-71
2021/05/06 15:02:24;;;;;;;3.50;1.40;;;9.10;96.30;;;;;;5097808;28;20469;-72
2021/05/06 15:04:49;;;;;;;4.83;1.60;;;9.00;96.00;;;;;;5088605;28;20209;-72
2021/05/06 15:07:15;;;;;;;3.30;1.90;;;9.00;96.10;;;;;;5096301;28;20708;-72
2021/05/06 15:09:41;;;;;;;2.90;1.67;;;8.90;96.00;;;;;;5092660;28;20210;-71
2021/05/06 15:12:07;;;;;;;3.67;1.80;;;8.90;96.40;;;;;;5092565;28;20244;-72
2021/05/06 15:14:33;;;;;;;3.70;2.13;;;8.90;96.90;;;;;;5092727;28;20946;-72
2021/05/06 15:16:59;;;;;;;6.50;1.80;;;8.90;97.00;;;;;;5095682;28;20456;-71
2021/05/06 15:19:24;;;;;;;3.70;1.67;;;8.90;97.10;;;;;;5093265;28;20442;-72
2021/05/06 15:21:50;;;;;;;4.00;2.77;;;8.90;97.20;;;;;;5095142;28;20185;-72
2021/05/06 15:24:16;;;;;;;3.43;2.10;;;9.00;97.40;;;;;;5106953;28;20186;-72
2021/05/06 15:26:42;;;;;;;3.20;1.40;;;9.00;97.20;;;;;;5106756;28;20198;-72
2021/05/06 15:29:07;;;;;;;4.70;2.13;;;9.00;96.90;;;;;;5090791;28;20214;-71
2021/05/06 15:31:36;;;;;;;3.60;1.50;;;9.00;96.80;;;;;;5092793;28;20193;-72
2021/05/06 15:34:02;;;;;;;3.57;1.87;;;9.10;97.00;;;;;;5090822;28;20210;-72
2021/05/06 15:36:30;;;;;;;2.87;1.30;;;9.00;97.00;;;;;;5093669;28;20465;-72
2021/05/06 15:38:59;;;;;;;3.00;1.60;;;9.10;97.00;;;;;;5095142;28;20413;-73
2021/05/06 15:41:25;;;;;;;2.70;1.40;;;9.10;96.80;;;;;;5105391;28;20475;-72
2021/05/06 15:43:51;;;;;;;4.30;1.70;;;9.20;97.00;;;;;;5091397;28;20448;-72
2021/05/06 15:46:17;;;;;;;4.10;1.80;;;9.20;97.20;;;;;;5091042;28;20413;-73
2021/05/06 15:48:42;;;;;;;4.40;1.57;;;9.30;97.60;;;;;;5089783;28;20209;-72
2021/05/06 15:51:08;;;;;;;5.40;2.00;;;9.40;98.00;;;;;;5104298;28;20416;-71
2021/05/06 15:53:34;;;;;;;5.77;1.80;;;9.50;97.80;;;;;;5112541;28;20213;-71
2021/05/06 15:56:00;;;;;;;4.40;1.60;;;9.60;97.40;;;;;;5111928;28;20182;-71
2021/05/06 15:58:27;;;;;;;3.37;1.80;;;9.60;97.00;;;;;;5113556;28;20242;-72
2021/05/06 16:00:59;;;;;;;3.43;1.80;;;9.60;97.10;;;;;;5114780;28;20843;-72
2021/05/06 16:03:26;;;;;;;4.10;2.10;;;9.60;97.00;;;;;;5113472;28;20432;-72
2021/05/06 16:05:55;;;;;;;7.47;2.80;;;9.60;97.30;;;;;;5108297;28;20420;-72
2021/05/06 16:08:23;;;;;;;5.70;2.30;;;9.60;97.60;;;;;;5117107;28;20432;-71
2021/05/06 16:10:50;;;;;;;4.20;2.00;;;9.60;97.50;;;;;;5105764;28;20420;-72
2021/05/06 16:13:20;;;;;;;5.13;2.73;;;9.60;97.50;;;;;;5091478;28;20433;-72
2021/05/06 16:15:48;;;;;;;5.00;1.83;;;9.70;97.40;;;;;;5088903;28;20460;-73
2021/05/06 16:18:15;;;;;;;4.73;2.37;;;9.70;97.30;;;;;;5090274;28;20461;-72
2021/05/06 16:20:41;;;;;;;4.80;2.10;;;9.80;97.50;;;;;;5090638;28;20464;-72
2021/05/06 16:23:11;;;;;;;3.83;1.80;;;10.00;97.10;;;;;;5104266;28;20429;-73
2021/05/06 16:25:38;;;;;;;4.30;2.13;;;9.90;96.70;;;;;;5089045;28;20999;-71
2021/05/06 16:28:05;;;;;;;4.43;2.17;;;10.00;97.00;;;;;;5090936;28;20449;-72
2021/05/06 16:30:31;;;;;;;5.00;2.13;;;10.10;97.00;;;;;;5090097;28;20836;-73
2021/05/06 16:32:58;;;;;;;5.50;2.07;;;10.30;96.60;;;;;;5090555;28;20468;-72
2021/05/06 16:35:29;;;;;;;5.30;2.00;;;10.40;95.80;;;;;;5087852;28;20437;-72
2021/05/06 16:38:01;;;;;;;4.33;2.30;;;10.40;95.70;;;;;;5089992;28;20461;-71
2021/05/06 16:40:53;;;;;;;4.50;1.97;;;10.50;95.50;;;;;;5089027;28;20769;-71